Terminal Aerodrome Forecast
Issued by NWS Sioux Falls, SD

Home | Current Version | Previous Version | Graphics & Text | Print | Product List | Glossary On
Versions: 1 2 3 4 5 6 7 8 9 10 11 12 13 14 15 16
000
FTUS43 KFSD 270526
TAFHON
TAF
KHON 270526Z 2706/2806 27004KT P6SM SCT100
     FM271700 24006KT P6SM SCT060
     FM272000 19008KT P6SM SCT060 BKN250
     FM280200 17008KT P6SM SCT100 OVC250=

USA.gov is the U.S. government's official web portal to all federal, state and local government web resources and services.